Terminal Aerodrome Forecast
Issued by NWS Sterling, VA

Current Version | Previous Version | Text Only | Print | Product List | Glossary Off
Versions: 1 2 3 4 5 6 7 8 9 10 11 12 13 14

000
FTUS41 KLWX 210500
TAFMRB
TAF
KMRB 210534Z 2106/2206 28012G18KT P6SM FEW040
     FM210800 29012KT P6SM FEW200
     FM211600 30014G23KT P6SM FEW050
     FM212200 31009KT P6SM SKC
     FM220000 VRB03KT P6SM SKC=

USA.gov is the U.S. government's official web portal to all federal, state and local government web resources and services.